sensor_id;sensor_type;location;lat;lon;timestamp;P1;durP1;ratioP1;P2;durP2;ratioP2
39094;SDS011;24840;47.508;19.376;2024-03-07T00:01:47;14.60;;;10.65;;
39094;SDS011;24840;47.508;19.376;2024-03-07T00:04:13;18.70;;;10.77;;
39094;SDS011;24840;47.508;19.376;2024-03-07T00:06:39;16.58;;;11.65;;
39094;SDS011;24840;47.508;19.376;2024-03-07T00:09:06;14.80;;;11.00;;
39094;SDS011;24840;47.508;19.376;2024-03-07T00:11:34;15.35;;;10.23;;
39094;SDS011;24840;47.508;19.376;2024-03-07T00:14:00;14.05;;;10.73;;
39094;SDS011;24840;47.508;19.376;2024-03-07T00:16:26;16.52;;;10.60;;
39094;SDS011;24840;47.508;19.376;2024-03-07T00:18:52;15.57;;;11.05;;
39094;SDS011;24840;47.508;19.376;2024-03-07T00:21:18;16.17;;;12.02;;
39094;SDS011;24840;47.508;19.376;2024-03-07T00:23:44;15.60;;;11.00;;
39094;SDS011;24840;47.508;19.376;2024-03-07T00:26:10;16.63;;;10.57;;
39094;SDS011;24840;47.508;19.376;2024-03-07T00:28:36;14.40;;;10.68;;
39094;SDS011;24840;47.508;19.376;2024-03-07T00:31:04;16.55;;;10.90;;
39094;SDS011;24840;47.508;19.376;2024-03-07T00:33:32;14.32;;;10.02;;
39094;SDS011;24840;47.508;19.376;2024-03-07T00:35:58;13.93;;;9.93;;
39094;SDS011;24840;47.508;19.376;2024-03-07T00:38:25;13.68;;;9.90;;
39094;SDS011;24840;47.508;19.376;2024-03-07T00:40:51;16.42;;;10.27;;
39094;SDS011;24840;47.508;19.376;2024-03-07T00:43:17;17.90;;;12.07;;
39094;SDS011;24840;47.508;19.376;2024-03-07T00:45:43;16.20;;;12.38;;
39094;SDS011;24840;47.508;19.376;2024-03-07T00:48:09;20.98;;;13.27;;
39094;SDS011;24840;47.508;19.376;2024-03-07T00:50:36;16.20;;;11.93;;
39094;SDS011;24840;47.508;19.376;2024-03-07T00:53:02;17.05;;;12.07;;
39094;SDS011;24840;47.508;19.376;2024-03-07T00:55:28;18.70;;;12.05;;
39094;SDS011;24840;47.508;19.376;2024-03-07T00:57:54;18.05;;;12.45;;
39094;SDS011;24840;47.508;19.376;2024-03-07T01:00:20;15.00;;;10.23;;
39094;SDS011;24840;47.508;19.376;2024-03-07T01:02:46;13.55;;;8.80;;
39094;SDS011;24840;47.508;19.376;2024-03-07T01:05:12;11.48;;;7.65;;
39094;SDS011;24840;47.508;19.376;2024-03-07T01:07:39;11.35;;;8.40;;
39094;SDS011;24840;47.508;19.376;2024-03-07T01:10:05;12.27;;;7.13;;
39094;SDS011;24840;47.508;19.376;2024-03-07T01:12:34;11.98;;;8.38;;
39094;SDS011;24840;47.508;19.376;2024-03-07T01:15:00;12.30;;;7.32;;
39094;SDS011;24840;47.508;19.376;2024-03-07T01:17:26;11.15;;;7.72;;
39094;SDS011;24840;47.508;19.376;2024-03-07T01:19:52;10.15;;;7.40;;
39094;SDS011;24840;47.508;19.376;2024-03-07T01:22:18;12.20;;;7.95;;
39094;SDS011;24840;47.508;19.376;2024-03-07T01:24:45;13.80;;;7.95;;
39094;SDS011;24840;47.508;19.376;2024-03-07T01:27:11;11.68;;;7.78;;
39094;SDS011;24840;47.508;19.376;2024-03-07T01:29:37;9.77;;;7.32;;
39094;SDS011;24840;47.508;19.376;2024-03-07T01:32:06;12.35;;;7.55;;
39094;SDS011;24840;47.508;19.376;2024-03-07T01:34:32;10.18;;;7.22;;
39094;SDS011;24840;47.508;19.376;2024-03-07T01:36:58;10.80;;;6.82;;
39094;SDS011;24840;47.508;19.376;2024-03-07T01:39:24;10.73;;;7.65;;
39094;SDS011;24840;47.508;19.376;2024-03-07T01:41:50;11.60;;;7.90;;
39094;SDS011;24840;47.508;19.376;2024-03-07T01:44:16;9.50;;;6.63;;
39094;SDS011;24840;47.508;19.376;2024-03-07T01:46:42;14.65;;;8.45;;
39094;SDS011;24840;47.508;19.376;2024-03-07T01:49:08;10.50;;;7.43;;
39094;SDS011;24840;47.508;19.376;2024-03-07T01:51:37;13.48;;;8.13;;
39094;SDS011;24840;47.508;19.376;2024-03-07T01:54:03;10.95;;;7.85;;
39094;SDS011;24840;47.508;19.376;2024-03-07T01:56:29;9.80;;;7.32;;
39094;SDS011;24840;47.508;19.376;2024-03-07T01:58:55;11.82;;;8.65;;
39094;SDS011;24840;47.508;19.376;2024-03-07T02:01:22;12.73;;;8.55;;
39094;SDS011;24840;47.508;19.376;2024-03-07T02:03:48;11.32;;;7.78;;
39094;SDS011;24840;47.508;19.376;2024-03-07T02:06:14;9.85;;;8.05;;
39094;SDS011;24840;47.508;19.376;2024-03-07T02:08:40;16.83;;;8.53;;
39094;SDS011;24840;47.508;19.376;2024-03-07T02:11:07;11.05;;;7.75;;
39094;SDS011;24840;47.508;19.376;2024-03-07T02:13:34;15.63;;;8.93;;
39094;SDS011;24840;47.508;19.376;2024-03-07T02:16:00;10.35;;;7.50;;
39094;SDS011;24840;47.508;19.376;2024-03-07T02:18:26;11.80;;;7.93;;
39094;SDS011;24840;47.508;19.376;2024-03-07T02:20:53;11.80;;;8.38;;
39094;SDS011;24840;47.508;19.376;2024-03-07T02:23:19;10.82;;;8.23;;
39094;SDS011;24840;47.508;19.376;2024-03-07T02:25:45;14.35;;;9.02;;
39094;SDS011;24840;47.508;19.376;2024-03-07T02:28:11;10.73;;;7.28;;
39094;SDS011;24840;47.508;19.376;2024-03-07T02:30:37;9.90;;;7.10;;
39094;SDS011;24840;47.508;19.376;2024-03-07T02:33:03;10.35;;;7.40;;
39094;SDS011;24840;47.508;19.376;2024-03-07T02:35:33;8.18;;;6.28;;
39094;SDS011;24840;47.508;19.376;2024-03-07T02:38:00;9.85;;;7.15;;
39094;SDS011;24840;47.508;19.376;2024-03-07T02:40:26;9.60;;;6.72;;
39094;SDS011;24840;47.508;19.376;2024-03-07T02:42:52;8.85;;;6.47;;
39094;SDS011;24840;47.508;19.376;2024-03-07T02:45:18;9.27;;;7.38;;
39094;SDS011;24840;47.508;19.376;2024-03-07T02:47:44;9.25;;;6.72;;
39094;SDS011;24840;47.508;19.376;2024-03-07T02:50:10;10.68;;;7.90;;
39094;SDS011;24840;47.508;19.376;2024-03-07T02:52:37;10.18;;;7.32;;
39094;SDS011;24840;47.508;19.376;2024-03-07T02:55:04;8.95;;;6.88;;
39094;SDS011;24840;47.508;19.376;2024-03-07T02:57:30;10.75;;;7.63;;
39094;SDS011;24840;47.508;19.376;2024-03-07T02:59:56;8.93;;;6.70;;
39094;SDS011;24840;47.508;19.376;2024-03-07T03:02:22;10.65;;;8.20;;
39094;SDS011;24840;47.508;19.376;2024-03-07T03:04:48;13.13;;;7.17;;
39094;SDS011;24840;47.508;19.376;2024-03-07T03:07:14;10.95;;;7.90;;
39094;SDS011;24840;47.508;19.376;2024-03-07T03:09:42;10.07;;;6.18;;
39094;SDS011;24840;47.508;19.376;2024-03-07T03:12:11;10.70;;;7.03;;
39094;SDS011;24840;47.508;19.376;2024-03-07T03:14:37;8.93;;;6.30;;
39094;SDS011;24840;47.508;19.376;2024-03-07T03:17:03;10.80;;;7.27;;
39094;SDS011;24840;47.508;19.376;2024-03-07T03:19:29;8.55;;;6.03;;
39094;SDS011;24840;47.508;19.376;2024-03-07T03:21:55;12.27;;;8.98;;
39094;SDS011;24840;47.508;19.376;2024-03-07T03:24:21;10.27;;;7.03;;
39094;SDS011;24840;47.508;19.376;2024-03-07T03:26:47;8.60;;;6.28;;
39094;SDS011;24840;47.508;19.376;2024-03-07T03:29:13;8.50;;;6.43;;
39094;SDS011;24840;47.508;19.376;2024-03-07T03:31:41;8.98;;;5.45;;
39094;SDS011;24840;47.508;19.376;2024-03-07T03:34:07;7.25;;;5.20;;
39094;SDS011;24840;47.508;19.376;2024-03-07T03:36:34;7.78;;;5.53;;
39094;SDS011;24840;47.508;19.376;2024-03-07T03:39:00;8.75;;;5.60;;
39094;SDS011;24840;47.508;19.376;2024-03-07T03:41:26;7.40;;;5.50;;
39094;SDS011;24840;47.508;19.376;2024-03-07T03:43:52;7.35;;;5.45;;
39094;SDS011;24840;47.508;19.376;2024-03-07T03:46:18;7.50;;;6.03;;
39094;SDS011;24840;47.508;19.376;2024-03-07T03:48:44;7.60;;;5.45;;
39094;SDS011;24840;47.508;19.376;2024-03-07T03:51:10;6.88;;;4.93;;
39094;SDS011;24840;47.508;19.376;2024-03-07T03:53:38;10.83;;;5.73;;
39094;SDS011;24840;47.508;19.376;2024-03-07T03:56:04;7.80;;;5.97;;
39094;SDS011;24840;47.508;19.376;2024-03-07T03:58:31;6.32;;;4.68;;
39094;SDS011;24840;47.508;19.376;2024-03-07T04:00:57;6.10;;;4.70;;
39094;SDS011;24840;47.508;19.376;2024-03-07T04:03:26;5.60;;;4.57;;
39094;SDS011;24840;47.508;19.376;2024-03-07T04:05:52;9.70;;;5.33;;
39094;SDS011;24840;47.508;19.376;2024-03-07T04:08:18;10.43;;;5.97;;
39094;SDS011;24840;47.508;19.376;2024-03-07T04:10:45;6.83;;;4.30;;
39094;SDS011;24840;47.508;19.376;2024-03-07T04:13:11;8.13;;;5.47;;
39094;SDS011;24840;47.508;19.376;2024-03-07T04:15:38;6.97;;;4.23;;
39094;SDS011;24840;47.508;19.376;2024-03-07T04:18:04;5.57;;;4.53;;
39094;SDS011;24840;47.508;19.376;2024-03-07T04:20:30;6.10;;;5.03;;
39094;SDS011;24840;47.508;19.376;2024-03-07T04:22:56;6.60;;;5.13;;
39094;SDS011;24840;47.508;19.376;2024-03-07T04:25:22;7.40;;;4.80;;
39094;SDS011;24840;47.508;19.376;2024-03-07T04:27:50;10.97;;;5.47;;
39094;SDS011;24840;47.508;19.376;2024-03-07T04:30:16;8.18;;;4.45;;
39094;SDS011;24840;47.508;19.376;2024-03-07T04:32:42;6.47;;;4.87;;
39094;SDS011;24840;47.508;19.376;2024-03-07T04:35:08;5.93;;;4.60;;
39094;SDS011;24840;47.508;19.376;2024-03-07T04:37:35;8.83;;;5.73;;
39094;SDS011;24840;47.508;19.376;2024-03-07T04:40:05;7.53;;;5.13;;
39094;SDS011;24840;47.508;19.376;2024-03-07T04:42:41;8.80;;;5.70;;
39094;SDS011;24840;47.508;19.376;2024-03-07T04:45:07;9.67;;;4.93;;
39094;SDS011;24840;47.508;19.376;2024-03-07T04:47:35;7.97;;;4.67;;
39094;SDS011;24840;47.508;19.376;2024-03-07T04:50:02;7.70;;;4.30;;
39094;SDS011;24840;47.508;19.376;2024-03-07T04:52:29;6.13;;;4.57;;
39094;SDS011;24840;47.508;19.376;2024-03-07T04:54:55;7.27;;;4.87;;
39094;SDS011;24840;47.508;19.376;2024-03-07T04:57:21;6.53;;;4.97;;
39094;SDS011;24840;47.508;19.376;2024-03-07T04:59:47;8.50;;;4.97;;
39094;SDS011;24840;47.508;19.376;2024-03-07T05:02:13;5.37;;;4.33;;
39094;SDS011;24840;47.508;19.376;2024-03-07T05:04:39;8.00;;;5.37;;
39094;SDS011;24840;47.508;19.376;2024-03-07T05:07:05;6.77;;;5.70;;
39094;SDS011;24840;47.508;19.376;2024-03-07T05:09:31;8.50;;;6.53;;
39094;SDS011;24840;47.508;19.376;2024-03-07T05:11:58;9.30;;;6.60;;
39094;SDS011;24840;47.508;19.376;2024-03-07T05:14:24;10.37;;;6.00;;
39094;SDS011;24840;47.508;19.376;2024-03-07T05:16:50;8.20;;;5.67;;
39094;SDS011;24840;47.508;19.376;2024-03-07T05:19:33;9.63;;;6.10;;
39094;SDS011;24840;47.508;19.376;2024-03-07T05:21:59;6.83;;;5.37;;
39094;SDS011;24840;47.508;19.376;2024-03-07T05:24:26;8.90;;;5.90;;
39094;SDS011;24840;47.508;19.376;2024-03-07T05:26:52;9.87;;;5.60;;
39094;SDS011;24840;47.508;19.376;2024-03-07T05:29:19;24.17;;;7.30;;
39094;SDS011;24840;47.508;19.376;2024-03-07T05:31:45;8.97;;;5.63;;
39094;SDS011;24840;47.508;19.376;2024-03-07T05:34:15;6.27;;;4.70;;
39094;SDS011;24840;47.508;19.376;2024-03-07T05:36:44;5.43;;;3.97;;
39094;SDS011;24840;47.508;19.376;2024-03-07T05:39:11;6.23;;;4.57;;
39094;SDS011;24840;47.508;19.376;2024-03-07T05:41:38;4.63;;;3.20;;
39094;SDS011;24840;47.508;19.376;2024-03-07T05:44:04;4.53;;;3.33;;
39094;SDS011;24840;47.508;19.376;2024-03-07T05:46:40;5.37;;;3.60;;
39094;SDS011;24840;47.508;19.376;2024-03-07T05:49:07;4.83;;;3.37;;
39094;SDS011;24840;47.508;19.376;2024-03-07T05:51:33;5.27;;;3.40;;
39094;SDS011;24840;47.508;19.376;2024-03-07T05:54:00;10.68;;;2.83;;
39094;SDS011;24840;47.508;19.376;2024-03-07T05:56:26;3.87;;;2.80;;
39094;SDS011;24840;47.508;19.376;2024-03-07T05:58:52;4.10;;;3.10;;
39094;SDS011;24840;47.508;19.376;2024-03-07T06:01:18;3.90;;;2.93;;
39094;SDS011;24840;47.508;19.376;2024-03-07T06:03:44;4.13;;;3.10;;
39094;SDS011;24840;47.508;19.376;2024-03-07T06:06:11;4.90;;;2.70;;
39094;SDS011;24840;47.508;19.376;2024-03-07T06:08:37;4.67;;;2.80;;
39094;SDS011;24840;47.508;19.376;2024-03-07T06:11:07;4.00;;;2.90;;
39094;SDS011;24840;47.508;19.376;2024-03-07T06:13:33;4.73;;;3.10;;
39094;SDS011;24840;47.508;19.376;2024-03-07T06:15:59;4.87;;;3.50;;
39094;SDS011;24840;47.508;19.376;2024-03-07T06:18:29;3.87;;;2.90;;
39094;SDS011;24840;47.508;19.376;2024-03-07T06:20:56;3.83;;;2.97;;
39094;SDS011;24840;47.508;19.376;2024-03-07T06:23:22;5.80;;;3.83;;
39094;SDS011;24840;47.508;19.376;2024-03-07T06:25:49;6.30;;;3.40;;
39094;SDS011;24840;47.508;19.376;2024-03-07T06:28:19;5.23;;;2.63;;
39094;SDS011;24840;47.508;19.376;2024-03-07T06:30:46;3.43;;;2.30;;
39094;SDS011;24840;47.508;19.376;2024-03-07T06:33:12;3.63;;;2.93;;
39094;SDS011;24840;47.508;19.376;2024-03-07T06:35:38;6.10;;;3.43;;
39094;SDS011;24840;47.508;19.376;2024-03-07T06:38:06;6.43;;;3.60;;
39094;SDS011;24840;47.508;19.376;2024-03-07T06:40:33;5.80;;;4.63;;
39094;SDS011;24840;47.508;19.376;2024-03-07T06:42:59;6.80;;;5.13;;
39094;SDS011;24840;47.508;19.376;2024-03-07T06:45:25;6.50;;;4.50;;
39094;SDS011;24840;47.508;19.376;2024-03-07T06:47:52;7.00;;;4.40;;
39094;SDS011;24840;47.508;19.376;2024-03-07T06:50:18;5.50;;;4.30;;
39094;SDS011;24840;47.508;19.376;2024-03-07T06:52:48;5.67;;;3.30;;
39094;SDS011;24840;47.508;19.376;2024-03-07T06:55:15;4.57;;;3.53;;
39094;SDS011;24840;47.508;19.376;2024-03-07T06:57:42;9.00;;;3.37;;
39094;SDS011;24840;47.508;19.376;2024-03-07T07:00:08;8.57;;;4.83;;
39094;SDS011;24840;47.508;19.376;2024-03-07T07:02:37;5.60;;;4.37;;
39094;SDS011;24840;47.508;19.376;2024-03-07T07:05:03;6.10;;;4.20;;
39094;SDS011;24840;47.508;19.376;2024-03-07T07:07:32;6.50;;;3.70;;
39094;SDS011;24840;47.508;19.376;2024-03-07T07:10:01;23.47;;;5.33;;
39094;SDS011;24840;47.508;19.376;2024-03-07T07:12:27;8.73;;;6.68;;
39094;SDS011;24840;47.508;19.376;2024-03-07T07:14:54;7.40;;;5.60;;
39094;SDS011;24840;47.508;19.376;2024-03-07T07:17:20;7.87;;;5.63;;
39094;SDS011;24840;47.508;19.376;2024-03-07T07:19:48;6.37;;;4.60;;
39094;SDS011;24840;47.508;19.376;2024-03-07T07:22:14;5.63;;;4.85;;
39094;SDS011;24840;47.508;19.376;2024-03-07T07:24:42;8.35;;;5.63;;
39094;SDS011;24840;47.508;19.376;2024-03-07T07:27:08;6.47;;;5.20;;
39094;SDS011;24840;47.508;19.376;2024-03-07T07:29:34;7.80;;;5.33;;
39094;SDS011;24840;47.508;19.376;2024-03-07T07:32:00;5.53;;;4.93;;
39094;SDS011;24840;47.508;19.376;2024-03-07T07:34:26;8.93;;;7.18;;
39094;SDS011;24840;47.508;19.376;2024-03-07T07:36:52;7.68;;;5.10;;
39094;SDS011;24840;47.508;19.376;2024-03-07T07:39:18;6.30;;;5.07;;
39094;SDS011;24840;47.508;19.376;2024-03-07T07:41:44;5.13;;;4.23;;
39094;SDS011;24840;47.508;19.376;2024-03-07T07:44:10;4.97;;;4.18;;
39094;SDS011;24840;47.508;19.376;2024-03-07T07:46:36;6.80;;;4.95;;
39094;SDS011;24840;47.508;19.376;2024-03-07T07:49:02;6.28;;;5.07;;
39094;SDS011;24840;47.508;19.376;2024-03-07T07:51:28;7.43;;;5.75;;
39094;SDS011;24840;47.508;19.376;2024-03-07T07:53:55;6.30;;;5.15;;
39094;SDS011;24840;47.508;19.376;2024-03-07T07:56:22;7.70;;;5.82;;
39094;SDS011;24840;47.508;19.376;2024-03-07T07:58:49;5.97;;;5.35;;
39094;SDS011;24840;47.508;19.376;2024-03-07T08:01:16;6.88;;;5.97;;
39094;SDS011;24840;47.508;19.376;2024-03-07T08:03:42;7.05;;;5.03;;
39094;SDS011;24840;47.508;19.376;2024-03-07T08:06:08;6.07;;;4.97;;
39094;SDS011;24840;47.508;19.376;2024-03-07T08:08:34;10.95;;;4.95;;
39094;SDS011;24840;47.508;19.376;2024-03-07T08:11:00;5.15;;;3.95;;
39094;SDS011;24840;47.508;19.376;2024-03-07T08:13:27;5.63;;;4.30;;
39094;SDS011;24840;47.508;19.376;2024-03-07T08:15:53;5.13;;;4.63;;
39094;SDS011;24840;47.508;19.376;2024-03-07T08:18:19;5.60;;;4.88;;
39094;SDS011;24840;47.508;19.376;2024-03-07T08:20:45;4.55;;;3.55;;
39094;SDS011;24840;47.508;19.376;2024-03-07T08:23:11;4.93;;;4.28;;
39094;SDS011;24840;47.508;19.376;2024-03-07T08:25:38;10.38;;;5.38;;
39094;SDS011;24840;47.508;19.376;2024-03-07T08:28:06;5.85;;;4.80;;
39094;SDS011;24840;47.508;19.376;2024-03-07T08:30:32;5.20;;;4.40;;
39094;SDS011;24840;47.508;19.376;2024-03-07T08:32:58;13.85;;;5.28;;
39094;SDS011;24840;47.508;19.376;2024-03-07T08:35:27;5.35;;;4.20;;
39094;SDS011;24840;47.508;19.376;2024-03-07T08:37:54;9.25;;;5.05;;
39094;SDS011;24840;47.508;19.376;2024-03-07T08:40:24;12.02;;;5.00;;
39094;SDS011;24840;47.508;19.376;2024-03-07T08:42:51;35.00;;;6.88;;
39094;SDS011;24840;47.508;19.376;2024-03-07T08:45:18;5.45;;;3.53;;
39094;SDS011;24840;47.508;19.376;2024-03-07T08:47:45;4.93;;;3.83;;
39094;SDS011;24840;47.508;19.376;2024-03-07T08:50:11;6.65;;;4.90;;
39094;SDS011;24840;47.508;19.376;2024-03-07T08:52:38;4.85;;;3.97;;
39094;SDS011;24840;47.508;19.376;2024-03-07T08:55:05;24.52;;;4.32;;
39094;SDS011;24840;47.508;19.376;2024-03-07T08:57:34;6.20;;;4.05;;
39094;SDS011;24840;47.508;19.376;2024-03-07T09:00:01;6.18;;;3.88;;
39094;SDS011;24840;47.508;19.376;2024-03-07T09:02:34;5.47;;;4.68;;
39094;SDS011;24840;47.508;19.376;2024-03-07T09:05:01;4.85;;;4.35;;
39094;SDS011;24840;47.508;19.376;2024-03-07T09:07:27;5.78;;;4.72;;
39094;SDS011;24840;47.508;19.376;2024-03-07T09:09:54;6.97;;;4.95;;
39094;SDS011;24840;47.508;19.376;2024-03-07T09:12:20;6.55;;;4.93;;
39094;SDS011;24840;47.508;19.376;2024-03-07T09:14:46;7.90;;;4.68;;
39094;SDS011;24840;47.508;19.376;2024-03-07T09:17:12;5.10;;;4.60;;
39094;SDS011;24840;47.508;19.376;2024-03-07T09:19:38;6.35;;;4.20;;
39094;SDS011;24840;47.508;19.376;2024-03-07T09:22:04;6.57;;;4.50;;
39094;SDS011;24840;47.508;19.376;2024-03-07T09:24:33;8.15;;;4.55;;
39094;SDS011;24840;47.508;19.376;2024-03-07T09:27:00;5.43;;;3.63;;
39094;SDS011;24840;47.508;19.376;2024-03-07T09:29:26;5.03;;;3.90;;
39094;SDS011;24840;47.508;19.376;2024-03-07T09:31:53;5.45;;;4.25;;
39094;SDS011;24840;47.508;19.376;2024-03-07T09:34:20;7.95;;;5.15;;
39094;SDS011;24840;47.508;19.376;2024-03-07T09:36:49;6.00;;;4.70;;
39094;SDS011;24840;47.508;19.376;2024-03-07T09:39:16;7.10;;;4.47;;
39094;SDS011;24840;47.508;19.376;2024-03-07T09:41:42;5.10;;;4.18;;
39094;SDS011;24840;47.508;19.376;2024-03-07T09:44:09;5.35;;;4.38;;
39094;SDS011;24840;47.508;19.376;2024-03-07T09:46:38;5.28;;;4.40;;
39094;SDS011;24840;47.508;19.376;2024-03-07T09:49:04;5.30;;;3.22;;
39094;SDS011;24840;47.508;19.376;2024-03-07T09:51:31;4.88;;;4.38;;
39094;SDS011;24840;47.508;19.376;2024-03-07T09:53:57;5.50;;;4.20;;
39094;SDS011;24840;47.508;19.376;2024-03-07T09:56:24;6.60;;;4.93;;
39094;SDS011;24840;47.508;19.376;2024-03-07T09:58:51;6.80;;;4.88;;
39094;SDS011;24840;47.508;19.376;2024-03-07T10:01:21;5.80;;;4.15;;
39094;SDS011;24840;47.508;19.376;2024-03-07T10:03:47;6.60;;;4.00;;
39094;SDS011;24840;47.508;19.376;2024-03-07T10:06:14;5.22;;;4.13;;
39094;SDS011;24840;47.508;19.376;2024-03-07T10:08:40;4.60;;;3.50;;
39094;SDS011;24840;47.508;19.376;2024-03-07T10:11:08;5.63;;;4.80;;
39094;SDS011;24840;47.508;19.376;2024-03-07T10:13:34;5.18;;;4.47;;
39094;SDS011;24840;47.508;19.376;2024-03-07T10:16:01;5.07;;;4.57;;
39094;SDS011;24840;47.508;19.376;2024-03-07T10:18:27;5.20;;;4.60;;
39094;SDS011;24840;47.508;19.376;2024-03-07T10:20:54;5.82;;;4.70;;
39094;SDS011;24840;47.508;19.376;2024-03-07T10:23:20;5.47;;;4.20;;
39094;SDS011;24840;47.508;19.376;2024-03-07T10:25:47;6.03;;;4.22;;
39094;SDS011;24840;47.508;19.376;2024-03-07T10:28:13;5.90;;;4.05;;
39094;SDS011;24840;47.508;19.376;2024-03-07T10:30:42;4.93;;;3.92;;
39094;SDS011;24840;47.508;19.376;2024-03-07T10:33:11;4.68;;;4.15;;
39094;SDS011;24840;47.508;19.376;2024-03-07T10:35:38;6.95;;;4.70;;
39094;SDS011;24840;47.508;19.376;2024-03-07T10:38:04;23.83;;;5.57;;
39094;SDS011;24840;47.508;19.376;2024-03-07T10:40:36;15.15;;;6.03;;
39094;SDS011;24840;47.508;19.376;2024-03-07T10:43:07;6.15;;;4.78;;
39094;SDS011;24840;47.508;19.376;2024-03-07T10:45:35;6.90;;;5.32;;
39094;SDS011;24840;47.508;19.376;2024-03-07T10:48:03;6.97;;;5.40;;
39094;SDS011;24840;47.508;19.376;2024-03-07T10:50:37;6.25;;;5.20;;
39094;SDS011;24840;47.508;19.376;2024-03-07T10:56:11;6.88;;;5.82;;
39094;SDS011;24840;47.508;19.376;2024-03-07T11:01:21;7.90;;;5.90;;
39094;SDS011;24840;47.508;19.376;2024-03-07T11:03:49;7.45;;;5.75;;
39094;SDS011;24840;47.508;19.376;2024-03-07T11:06:17;8.80;;;6.60;;
39094;SDS011;24840;47.508;19.376;2024-03-07T11:08:43;7.95;;;5.93;;
39094;SDS011;24840;47.508;19.376;2024-03-07T11:11:10;9.48;;;7.18;;
39094;SDS011;24840;47.508;19.376;2024-03-07T11:13:37;7.35;;;5.88;;
39094;SDS011;24840;47.508;19.376;2024-03-07T11:16:03;6.43;;;5.43;;
39094;SDS011;24840;47.508;19.376;2024-03-07T11:18:30;8.15;;;6.20;;
39094;SDS011;24840;47.508;19.376;2024-03-07T11:20:56;6.43;;;5.55;;
39094;SDS011;24840;47.508;19.376;2024-03-07T11:23:29;7.38;;;5.60;;
39094;SDS011;24840;47.508;19.376;2024-03-07T11:26:07;11.30;;;6.13;;
39094;SDS011;24840;47.508;19.376;2024-03-07T11:28:34;13.93;;;5.95;;
39094;SDS011;24840;47.508;19.376;2024-03-07T11:36:47;8.68;;;6.25;;
39094;SDS011;24840;47.508;19.376;2024-03-07T11:39:39;7.75;;;5.97;;
39094;SDS011;24840;47.508;19.376;2024-03-07T11:42:06;8.23;;;6.90;;
39094;SDS011;24840;47.508;19.376;2024-03-07T11:44:32;7.88;;;5.82;;
39094;SDS011;24840;47.508;19.376;2024-03-07T11:47:01;7.35;;;6.28;;
39094;SDS011;24840;47.508;19.376;2024-03-07T11:49:36;7.90;;;5.82;;
39094;SDS011;24840;47.508;19.376;2024-03-07T11:52:03;8.68;;;5.65;;
39094;SDS011;24840;47.508;19.376;2024-03-07T11:54:36;7.47;;;6.13;;
39094;SDS011;24840;47.508;19.376;2024-03-07T11:57:03;7.47;;;5.55;;
39094;SDS011;24840;47.508;19.376;2024-03-07T11:59:37;7.80;;;5.10;;
39094;SDS011;24840;47.508;19.376;2024-03-07T12:02:04;7.28;;;5.50;;
39094;SDS011;24840;47.508;19.376;2024-03-07T12:04:30;8.65;;;6.03;;
39094;SDS011;24840;47.508;19.376;2024-03-07T12:06:59;6.10;;;5.30;;
39094;SDS011;24840;47.508;19.376;2024-03-07T12:09:26;12.50;;;5.30;;
39094;SDS011;24840;47.508;19.376;2024-03-07T12:11:52;8.15;;;6.55;;
39094;SDS011;24840;47.508;19.376;2024-03-07T12:14:18;8.55;;;6.72;;
39094;SDS011;24840;47.508;19.376;2024-03-07T12:16:45;8.50;;;6.88;;
39094;SDS011;24840;47.508;19.376;2024-03-07T12:19:12;7.82;;;5.93;;
39094;SDS011;24840;47.508;19.376;2024-03-07T12:21:46;9.40;;;6.60;;
39094;SDS011;24840;47.508;19.376;2024-03-07T12:24:13;6.97;;;5.05;;
39094;SDS011;24840;47.508;19.376;2024-03-07T12:26:43;8.63;;;5.53;;
39094;SDS011;24840;47.508;19.376;2024-03-07T12:29:10;7.25;;;5.25;;
39094;SDS011;24840;47.508;19.376;2024-03-07T12:31:40;9.75;;;7.13;;
39094;SDS011;24840;47.508;19.376;2024-03-07T12:34:06;7.75;;;6.10;;
39094;SDS011;24840;47.508;19.376;2024-03-07T12:36:34;7.82;;;6.38;;
39094;SDS011;24840;47.508;19.376;2024-03-07T12:39:20;8.90;;;5.90;;
39094;SDS011;24840;47.508;19.376;2024-03-07T12:41:50;7.40;;;5.70;;
39094;SDS011;24840;47.508;19.376;2024-03-07T12:44:19;8.02;;;5.35;;
39094;SDS011;24840;47.508;19.376;2024-03-07T12:46:46;6.28;;;4.90;;
39094;SDS011;24840;47.508;19.376;2024-03-07T12:49:12;7.45;;;5.03;;
39094;SDS011;24840;47.508;19.376;2024-03-07T12:51:40;7.68;;;5.78;;
39094;SDS011;24840;47.508;19.376;2024-03-07T12:54:09;9.10;;;6.55;;
39094;SDS011;24840;47.508;19.376;2024-03-07T12:56:36;8.10;;;6.38;;
39094;SDS011;24840;47.508;19.376;2024-03-07T12:59:05;8.52;;;6.68;;
39094;SDS011;24840;47.508;19.376;2024-03-07T13:01:37;7.28;;;5.47;;
39094;SDS011;24840;47.508;19.376;2024-03-07T13:04:05;9.20;;;7.32;;
39094;SDS011;24840;47.508;19.376;2024-03-07T13:06:33;11.50;;;7.18;;
39094;SDS011;24840;47.508;19.376;2024-03-07T13:08:59;14.57;;;7.10;;
39094;SDS011;24840;47.508;19.376;2024-03-07T13:11:25;8.75;;;6.32;;
39094;SDS011;24840;47.508;19.376;2024-03-07T13:13:55;7.50;;;6.32;;
39094;SDS011;24840;47.508;19.376;2024-03-07T13:16:24;8.90;;;6.55;;
39094;SDS011;24840;47.508;19.376;2024-03-07T13:18:55;9.65;;;6.25;;
39094;SDS011;24840;47.508;19.376;2024-03-07T13:21:21;9.23;;;6.78;;
39094;SDS011;24840;47.508;19.376;2024-03-07T13:23:47;7.95;;;6.38;;
39094;SDS011;24840;47.508;19.376;2024-03-07T13:26:15;7.50;;;6.32;;
39094;SDS011;24840;47.508;19.376;2024-03-07T13:28:45;9.73;;;6.93;;
39094;SDS011;24840;47.508;19.376;2024-03-07T13:31:12;9.18;;;7.40;;
39094;SDS011;24840;47.508;19.376;2024-03-07T13:33:42;13.38;;;6.75;;
39094;SDS011;24840;47.508;19.376;2024-03-07T13:36:08;10.98;;;6.80;;
39094;SDS011;24840;47.508;19.376;2024-03-07T13:38:34;7.35;;;5.72;;
39094;SDS011;24840;47.508;19.376;2024-03-07T13:41:00;9.98;;;7.18;;
39094;SDS011;24840;47.508;19.376;2024-03-07T13:43:29;7.28;;;6.13;;
39094;SDS011;24840;47.508;19.376;2024-03-07T13:45:55;9.38;;;7.32;;
39094;SDS011;24840;47.508;19.376;2024-03-07T13:48:21;11.45;;;6.70;;
39094;SDS011;24840;47.508;19.376;2024-03-07T13:50:47;8.40;;;7.13;;
39094;SDS011;24840;47.508;19.376;2024-03-07T13:53:14;9.20;;;6.97;;
39094;SDS011;24840;47.508;19.376;2024-03-07T13:55:48;9.15;;;7.22;;
39094;SDS011;24840;47.508;19.376;2024-03-07T14:23:07;12.23;;;8.82;;
39094;SDS011;24840;47.508;19.376;2024-03-07T14:25:41;9.50;;;7.65;;
39094;SDS011;24840;47.508;19.376;2024-03-07T14:30:52;10.02;;;7.60;;
39094;SDS011;24840;47.508;19.376;2024-03-07T14:33:28;9.07;;;7.10;;
39094;SDS011;24840;47.508;19.376;2024-03-07T14:38:47;9.90;;;7.30;;
39094;SDS011;24840;47.508;19.376;2024-03-07T14:41:15;13.93;;;8.23;;
39094;SDS011;24840;47.508;19.376;2024-03-07T14:43:42;9.93;;;7.05;;
39094;SDS011;24840;47.508;19.376;2024-03-07T14:46:11;11.90;;;8.75;;
39094;SDS011;24840;47.508;19.376;2024-03-07T14:48:38;11.35;;;8.13;;
39094;SDS011;24840;47.508;19.376;2024-03-07T14:51:06;11.25;;;8.43;;
39094;SDS011;24840;47.508;19.376;2024-03-07T14:53:33;12.55;;;7.63;;
39094;SDS011;24840;47.508;19.376;2024-03-07T14:55:59;14.63;;;8.43;;
39094;SDS011;24840;47.508;19.376;2024-03-07T14:58:25;12.73;;;9.27;;
39094;SDS011;24840;47.508;19.376;2024-03-07T15:00:51;12.57;;;8.00;;
39094;SDS011;24840;47.508;19.376;2024-03-07T15:03:19;13.02;;;8.70;;
39094;SDS011;24840;47.508;19.376;2024-03-07T15:05:45;9.63;;;7.43;;
39094;SDS011;24840;47.508;19.376;2024-03-07T15:08:16;13.40;;;8.43;;
39094;SDS011;24840;47.508;19.376;2024-03-07T15:10:48;19.98;;;8.30;;
39094;SDS011;24840;47.508;19.376;2024-03-07T15:13:16;9.70;;;7.57;;